Bungo Princess — 3FXV8 — position and weather

sailwx.info

Track history (hours):
 
Tides and Currents Weather Stations Pressure Air Temp Water Temp Dewpoint Dewpoint Depression Visibility Wind Speed Wind Dir Waves Ship Positions

Bungo Princess

Last reported at 2015-Jun-10 13:33 UTC. Time now 2015-Jun-30 10:04 UTC.
Position N 36°60' E 141°17'.
Warning: this ship's position is 19 days out of date.

Length 103 m; draft 5 m.

Type: Cargo ship. MMSI: 355091000.

Date/timePositionNaut miles runAvg speedWind from/ knotsBaromVisibWave heightAir tempDewpointWater temp
2015-Jun-10 13:33N 36°60' E 141°17'1413.6
2015-Jun-10 12:33N 36°47' E 141°12'1413.5
2015-Jun-10 11:33N 36°34' E 141°05'1813.5
2015-Jun-10 10:13N 36°18' E 140°56'1413.3
2015-Jun-10 09:09N 36°05' E 140°49'2 3.4
2015-Jun-10 08:26N 36°05' E 140°46'10 9.8
2015-Jun-10 07:22N 35°55' E 140°40'1 0.6
2015-Jun-10 06:27N 35°56' E 140°39'0 0.0
2015-Jun-10 05:27N 35°56' E 140°39'0 0.0
2015-Jun-10 04:33N 35°56' E 140°39'0 0.0
2015-Jun-10 03:33N 35°56' E 140°39'0 0.0
2015-Jun-10 02:30N 35°56' E 140°39'0 0.0
2015-Jun-10 01:33N 35°56' E 140°39'0 0.0
2015-Jun-10 00:21N 35°56' E 140°39'0 0.0
2015-Jun-09 23:33N 35°56' E 140°39'0 0.0
2015-Jun-09 22:27N 35°56' E 140°39'0 0.0
2015-Jun-09 21:33N 35°56' E 140°39'0 0.0
2015-Jun-09 20:33N 35°56' E 140°39'0 0.0
2015-Jun-09 19:30N 35°56' E 140°39'0 0.0
2015-Jun-09 18:30N 35°56' E 140°39'0 0.0
2015-Jun-09 17:30N 35°56' E 140°39'0 0.0
2015-Jun-09 16:33N 35°56' E 140°39'0 0.0
2015-Jun-09 15:33N 35°56' E 140°39'0 0.0
2015-Jun-09 14:33N 35°56' E 140°39'0 0.0
2015-Jun-09 13:33N 35°56' E 140°39'0 0.0
2015-Jun-09 12:33N 35°56' E 140°39'0 0.0
2015-Jun-09 11:30N 35°56' E 140°39'0 0.0
2015-Jun-09 10:33N 35°56' E 140°39'0 0.0
2015-Jun-09 09:30N 35°56' E 140°39'0 0.0
2015-Jun-09 08:33N 35°56' E 140°39'0 0.0
2015-Jun-09 07:33N 35°56' E 140°39'0 0.0
2015-Jun-09 06:33N 35°56' E 140°39'0 0.0
2015-Jun-09 05:21N 35°56' E 140°39'0 0.0
2015-Jun-09 04:27N 35°56' E 140°39'0 0.0
2015-Jun-09 03:21N 35°56' E 140°39'0 0.0
2015-Jun-09 02:21N 35°56' E 140°39'0 0.0
2015-Jun-09 01:27N 35°56' E 140°39'0 0.0
2015-Jun-09 00:33N 35°56' E 140°39'0 0.0
2015-Jun-08 23:33N 35°56' E 140°39'0 0.0
2015-Jun-08 22:33N 35°56' E 140°39'0 0.0
2015-Jun-08 21:27N 35°56' E 140°39'0 0.0
2015-Jun-08 20:30N 35°56' E 140°39'0 0.0
2015-Jun-08 19:33N 35°56' E 140°39'0 0.0
2015-Jun-08 18:33N 35°56' E 140°39'0 0.0
2015-Jun-08 17:27N 35°56' E 140°39'0 0.0
2015-Jun-08 16:33N 35°56' E 140°39'0 0.0
2015-Jun-08 15:27N 35°56' E 140°39'0 0.0
2015-Jun-08 14:33N 35°56' E 140°39'0 0.0
2015-Jun-08 13:27N 35°56' E 140°39'0 0.0
2015-Jun-08 12:27N 35°56' E 140°39'0 0.0
2015-Jun-08 11:33N 35°56' E 140°39'0 0.0
2015-Jun-08 10:33N 35°56' E 140°39'0 0.0
2015-Jun-08 09:30N 35°56' E 140°39'0 0.0
2015-Jun-08 08:33N 35°56' E 140°39'0 0.0
2015-Jun-08 07:33N 35°56' E 140°39'0 0.0
2015-Jun-08 06:33N 35°56' E 140°39'5 4.9
2015-Jun-08 05:31N 35°59' E 140°43'34 2.4
2015-Jun-07 15:14N 35°26' E 140°51'3613.5
2015-Jun-07 12:33N 35°01' E 140°20'1413.3
2015-Jun-07 11:32N 34°53' E 140°06'  
2015-Jun-04 12:29N 31°00' E 122°25'1010.8
2015-Jun-04 11:33N 31°02' E 122°14'1111.1
2015-Jun-04 10:33N 31°05' E 122°01'1414.1
2015-Jun-04 09:33N 31°13' E 121°48'1312.5
2015-Jun-04 08:33N 31°22' E 121°37'6 6.4
2015-Jun-04 07:33N 31°22' E 121°30'0 0.0
2015-Jun-04 06:33N 31°22' E 121°30'0 0.0
2015-Jun-04 05:33N 31°22' E 121°30'0 0.0
2015-Jun-04 04:33N 31°22' E 121°30'0 0.0
2015-Jun-04 03:33N 31°22' E 121°30'0 0.0
2015-Jun-04 02:33N 31°22' E 121°30'0 0.1
2015-Jun-04 01:33N 31°22' E 121°30'0 0.1
2015-Jun-04 00:33N 31°22' E 121°30'0 0.0
2015-Jun-03 23:33N 31°22' E 121°30'0 0.0
2015-Jun-03 22:33N 31°22' E 121°30'0 0.0
2015-Jun-03 21:27N 31°22' E 121°30'0 0.0
2015-Jun-03 20:27N 31°22' E 121°30'0 0.0
2015-Jun-03 19:33N 31°22' E 121°30'3 3.3
2015-Jun-03 18:33N 31°24' E 121°33'1 0.9
2015-Jun-03 17:19N 31°24' E 121°34'0 0.0
2015-Jun-03 16:25N 31°24' E 121°34'0 0.0
2015-Jun-03 15:31N 31°24' E 121°34'0 0.0
2015-Jun-03 14:31N 31°24' E 121°34'0 0.2
2015-Jun-03 13:31N 31°24' E 121°34'0 0.0
2015-Jun-03 12:31N 31°24' E 121°34'0 0.0
2015-Jun-03 11:07N 31°24' E 121°34'0 0.0
2015-Jun-03 10:31N 31°24' E 121°34'0 0.0
2015-Jun-03 09:31N 31°24' E 121°34'0 0.0
2015-Jun-03 08:31N 31°24' E 121°34'0 0.1
2015-Jun-03 07:31N 31°24' E 121°34'0 0.1
2015-Jun-03 06:31N 31°24' E 121°34'0 0.0
2015-Jun-03 05:31N 31°24' E 121°34'0 0.1
2015-Jun-03 04:31N 31°24' E 121°34'0 0.0
2015-Jun-03 03:31N 31°24' E 121°34'0 0.1
2015-Jun-03 02:31N 31°24' E 121°34'0 0.1
2015-Jun-03 01:31N 31°24' E 121°34'0 0.0
2015-Jun-03 00:31N 31°24' E 121°34'0 0.0
2015-Jun-02 23:31N 31°24' E 121°34'0 0.0
2015-Jun-02 22:25N 31°24' E 121°34'0 0.0
2015-Jun-02 21:29N 31°24' E 121°34'0 0.0
2015-Jun-02 20:32N 31°24' E 121°34'0 0.1
2015-Jun-02 19:32N 31°24' E 121°34'0 0.1
2015-Jun-02 18:32N 31°24' E 121°34'0 0.1
2015-Jun-02 17:32N 31°24' E 121°34'0 0.0
2015-Jun-02 16:32N 31°24' E 121°34'0 0.0
2015-Jun-02 15:29N 31°24' E 121°34'0 0.0
2015-Jun-02 14:32N 31°24' E 121°34'0 0.0
2015-Jun-02 13:32N 31°24' E 121°34'0 0.1
2015-Jun-02 12:29N 31°24' E 121°34'0 0.1
2015-Jun-02 11:29N 31°24' E 121°34'0 0.0
2015-Jun-02 10:32N 31°24' E 121°34'0 0.0
2015-Jun-02 09:32N 31°24' E 121°34'0 0.0
2015-Jun-02 08:29N 31°24' E 121°34'0 0.0
2015-Jun-02 07:32N 31°24' E 121°34'0 0.0
2015-Jun-02 06:32N 31°24' E 121°34'0 0.1
2015-Jun-02 05:32N 31°24' E 121°34'0 0.1
2015-Jun-02 04:32N 31°24' E 121°34'0 0.0
2015-Jun-02 03:32N 31°24' E 121°34'0 0.0
2015-Jun-02 02:32N 31°24' E 121°34'0 0.0
2015-Jun-02 01:32N 31°24' E 121°34'0 0.2
2015-Jun-02 00:32N 31°24' E 121°34'0 0.0
2015-Jun-01 23:32N 31°24' E 121°34'0 0.0
2015-Jun-01 22:32N 31°24' E 121°34'0 0.0
2015-Jun-01 21:32N 31°24' E 121°34'0 0.1
2015-Jun-01 20:32N 31°24' E 121°34'0 0.0
2015-Jun-01 19:32N 31°24' E 121°34'0 0.1
2015-Jun-01 18:32N 31°24' E 121°34'0 0.1
2015-Jun-01 17:32N 31°24' E 121°34'0 0.0
2015-Jun-01 16:32N 31°24' E 121°34'0 0.0
2015-Jun-01 15:32N 31°24' E 121°34'0 0.0
2015-Jun-01 14:26N 31°24' E 121°34'0 0.0
2015-Jun-01 13:32N 31°24' E 121°34'0 0.0
2015-Jun-01 12:32N 31°24' E 121°34'0 0.2
2015-Jun-01 11:32N 31°24' E 121°34'0 0.0
2015-Jun-01 10:32N 31°24' E 121°34'0 0.0
2015-Jun-01 09:32N 31°24' E 121°34'0 0.1
2015-Jun-01 08:32N 31°24' E 121°34'0 0.0
2015-Jun-01 07:32N 31°24' E 121°34'0 0.1
2015-Jun-01 06:29N 31°24' E 121°34'0 0.1
2015-Jun-01 05:29N 31°24' E 121°34'0 0.0
2015-Jun-01 02:32N 31°24' E 121°34'0 0.0
2015-Jun-01 01:32N 31°24' E 121°34'0 0.1
2015-Jun-01 00:32N 31°24' E 121°34'0 0.1
2015-May-31 23:32N 31°24' E 121°34'0 0.0
2015-May-31 22:32N 31°24' E 121°34'0 0.0
2015-May-31 21:32N 31°24' E 121°34'0 0.0
2015-May-31 20:32N 31°24' E 121°34'0 0.0
2015-May-31 19:32N 31°24' E 121°34'0 0.0
2015-May-31 18:32N 31°24' E 121°34'0 0.1
2015-May-31 17:29N 31°24' E 121°34'0 0.1
2015-May-31 16:32N 31°24' E 121°34'0 0.0
2015-May-31 15:32N 31°24' E 121°34'0 0.0
2015-May-31 14:32N 31°24' E 121°34'  
Track history (hours):
 
Tides and Currents Weather Stations Pressure Air Temp Water Temp Dewpoint Dewpoint Depression Visibility Wind Speed Wind Dir Waves Ship Positions

Bungo Princess

Last reported at 2015-Jun-10 13:33 UTC. Time now 2015-Jun-30 10:04 UTC.
Position N 36°60' E 141°17'.
Warning: this ship's position is 19 days out of date.

Length 103 m; draft 5 m.

Type: Cargo ship. MMSI: 355091000.

Date/timePositionNaut miles runAvg speedWind from/ knotsBaromVisibWave heightAir tempDewpointWater temp
2015-Jun-10 13:33N 36°60' E 141°17'1413.6
2015-Jun-10 12:33N 36°47' E 141°12'1413.5
2015-Jun-10 11:33N 36°34' E 141°05'1813.5
2015-Jun-10 10:13N 36°18' E 140°56'1413.3
2015-Jun-10 09:09N 36°05' E 140°49'2 3.4
2015-Jun-10 08:26N 36°05' E 140°46'10 9.8
2015-Jun-10 07:22N 35°55' E 140°40'1 0.6
2015-Jun-10 06:27N 35°56' E 140°39'0 0.0
2015-Jun-10 05:27N 35°56' E 140°39'0 0.0
2015-Jun-10 04:33N 35°56' E 140°39'0 0.0
2015-Jun-10 03:33N 35°56' E 140°39'0 0.0
2015-Jun-10 02:30N 35°56' E 140°39'0 0.0
2015-Jun-10 01:33N 35°56' E 140°39'0 0.0
2015-Jun-10 00:21N 35°56' E 140°39'0 0.0
2015-Jun-09 23:33N 35°56' E 140°39'0 0.0
2015-Jun-09 22:27N 35°56' E 140°39'0 0.0
2015-Jun-09 21:33N 35°56' E 140°39'0 0.0
2015-Jun-09 20:33N 35°56' E 140°39'0 0.0
2015-Jun-09 19:30N 35°56' E 140°39'0 0.0
2015-Jun-09 18:30N 35°56' E 140°39'0 0.0
2015-Jun-09 17:30N 35°56' E 140°39'0 0.0
2015-Jun-09 16:33N 35°56' E 140°39'0 0.0
2015-Jun-09 15:33N 35°56' E 140°39'0 0.0
2015-Jun-09 14:33N 35°56' E 140°39'0 0.0
2015-Jun-09 13:33N 35°56' E 140°39'0 0.0
2015-Jun-09 12:33N 35°56' E 140°39'0 0.0
2015-Jun-09 11:30N 35°56' E 140°39'0 0.0
2015-Jun-09 10:33N 35°56' E 140°39'0 0.0
2015-Jun-09 09:30N 35°56' E 140°39'0 0.0
2015-Jun-09 08:33N 35°56' E 140°39'0 0.0
2015-Jun-09 07:33N 35°56' E 140°39'0 0.0
2015-Jun-09 06:33N 35°56' E 140°39'0 0.0
2015-Jun-09 05:21N 35°56' E 140°39'0 0.0
2015-Jun-09 04:27N 35°56' E 140°39'0 0.0
2015-Jun-09 03:21N 35°56' E 140°39'0 0.0
2015-Jun-09 02:21N 35°56' E 140°39'0 0.0
2015-Jun-09 01:27N 35°56' E 140°39'0 0.0
2015-Jun-09 00:33N 35°56' E 140°39'0 0.0
2015-Jun-08 23:33N 35°56' E 140°39'0 0.0
2015-Jun-08 22:33N 35°56' E 140°39'0 0.0
2015-Jun-08 21:27N 35°56' E 140°39'0 0.0
2015-Jun-08 20:30N 35°56' E 140°39'0 0.0
2015-Jun-08 19:33N 35°56' E 140°39'0 0.0
2015-Jun-08 18:33N 35°56' E 140°39'0 0.0
2015-Jun-08 17:27N 35°56' E 140°39'0 0.0
2015-Jun-08 16:33N 35°56' E 140°39'0 0.0
2015-Jun-08 15:27N 35°56' E 140°39'0 0.0
2015-Jun-08 14:33N 35°56' E 140°39'0 0.0
2015-Jun-08 13:27N 35°56' E 140°39'0 0.0
2015-Jun-08 12:27N 35°56' E 140°39'0 0.0
2015-Jun-08 11:33N 35°56' E 140°39'0 0.0
2015-Jun-08 10:33N 35°56' E 140°39'0 0.0
2015-Jun-08 09:30N 35°56' E 140°39'0 0.0
2015-Jun-08 08:33N 35°56' E 140°39'0 0.0
2015-Jun-08 07:33N 35°56' E 140°39'0 0.0
2015-Jun-08 06:33N 35°56' E 140°39'5 4.9
2015-Jun-08 05:31N 35°59' E 140°43'34 2.4
2015-Jun-07 15:14N 35°26' E 140°51'3613.5
2015-Jun-07 12:33N 35°01' E 140°20'1413.3
2015-Jun-07 11:32N 34°53' E 140°06'  
2015-Jun-04 12:29N 31°00' E 122°25'1010.8
2015-Jun-04 11:33N 31°02' E 122°14'1111.1
2015-Jun-04 10:33N 31°05' E 122°01'1414.1
2015-Jun-04 09:33N 31°13' E 121°48'1312.5
2015-Jun-04 08:33N 31°22' E 121°37'6 6.4
2015-Jun-04 07:33N 31°22' E 121°30'0 0.0
2015-Jun-04 06:33N 31°22' E 121°30'0 0.0
2015-Jun-04 05:33N 31°22' E 121°30'0 0.0
2015-Jun-04 04:33N 31°22' E 121°30'0 0.0
2015-Jun-04 03:33N 31°22' E 121°30'0 0.0
2015-Jun-04 02:33N 31°22' E 121°30'0 0.1
2015-Jun-04 01:33N 31°22' E 121°30'0 0.1
2015-Jun-04 00:33N 31°22' E 121°30'0 0.0
2015-Jun-03 23:33N 31°22' E 121°30'0 0.0
2015-Jun-03 22:33N 31°22' E 121°30'0 0.0
2015-Jun-03 21:27N 31°22' E 121°30'0 0.0
2015-Jun-03 20:27N 31°22' E 121°30'0 0.0
2015-Jun-03 19:33N 31°22' E 121°30'3 3.3
2015-Jun-03 18:33N 31°24' E 121°33'1 0.9
2015-Jun-03 17:19N 31°24' E 121°34'0 0.0
2015-Jun-03 16:25N 31°24' E 121°34'0 0.0
2015-Jun-03 15:31N 31°24' E 121°34'0 0.0
2015-Jun-03 14:31N 31°24' E 121°34'0 0.2
2015-Jun-03 13:31N 31°24' E 121°34'0 0.0
2015-Jun-03 12:31N 31°24' E 121°34'0 0.0
2015-Jun-03 11:07N 31°24' E 121°34'0 0.0
2015-Jun-03 10:31N 31°24' E 121°34'0 0.0
2015-Jun-03 09:31N 31°24' E 121°34'0 0.0
2015-Jun-03 08:31N 31°24' E 121°34'0 0.1
2015-Jun-03 07:31N 31°24' E 121°34'0 0.1
2015-Jun-03 06:31N 31°24' E 121°34'0 0.0
2015-Jun-03 05:31N 31°24' E 121°34'0 0.1
2015-Jun-03 04:31N 31°24' E 121°34'0 0.0
2015-Jun-03 03:31N 31°24' E 121°34'0 0.1
2015-Jun-03 02:31N 31°24' E 121°34'0 0.1
2015-Jun-03 01:31N 31°24' E 121°34'0 0.0
2015-Jun-03 00:31N 31°24' E 121°34'0 0.0
2015-Jun-02 23:31N 31°24' E 121°34'0 0.0
2015-Jun-02 22:25N 31°24' E 121°34'0 0.0
2015-Jun-02 21:29N 31°24' E 121°34'0 0.0
2015-Jun-02 20:32N 31°24' E 121°34'0 0.1
2015-Jun-02 19:32N 31°24' E 121°34'0 0.1
2015-Jun-02 18:32N 31°24' E 121°34'0 0.1
2015-Jun-02 17:32N 31°24' E 121°34'0 0.0
2015-Jun-02 16:32N 31°24' E 121°34'0 0.0
2015-Jun-02 15:29N 31°24' E 121°34'0 0.0
2015-Jun-02 14:32N 31°24' E 121°34'0 0.0
2015-Jun-02 13:32N 31°24' E 121°34'0 0.1
2015-Jun-02 12:29N 31°24' E 121°34'0 0.1
2015-Jun-02 11:29N 31°24' E 121°34'0 0.0
2015-Jun-02 10:32N 31°24' E 121°34'0 0.0
2015-Jun-02 09:32N 31°24' E 121°34'0 0.0
2015-Jun-02 08:29N 31°24' E 121°34'0 0.0
2015-Jun-02 07:32N 31°24' E 121°34'0 0.0
2015-Jun-02 06:32N 31°24' E 121°34'0 0.1
2015-Jun-02 05:32N 31°24' E 121°34'0 0.1
2015-Jun-02 04:32N 31°24' E 121°34'0 0.0
2015-Jun-02 03:32N 31°24' E 121°34'0 0.0
2015-Jun-02 02:32N 31°24' E 121°34'0 0.0
2015-Jun-02 01:32N 31°24' E 121°34'0 0.2
2015-Jun-02 00:32N 31°24' E 121°34'0 0.0
2015-Jun-01 23:32N 31°24' E 121°34'0 0.0
2015-Jun-01 22:32N 31°24' E 121°34'0 0.0
2015-Jun-01 21:32N 31°24' E 121°34'0 0.1
2015-Jun-01 20:32N 31°24' E 121°34'0 0.0
2015-Jun-01 19:32N 31°24' E 121°34'0 0.1
2015-Jun-01 18:32N 31°24' E 121°34'0 0.1
2015-Jun-01 17:32N 31°24' E 121°34'0 0.0
2015-Jun-01 16:32N 31°24' E 121°34'0 0.0
2015-Jun-01 15:32N 31°24' E 121°34'0 0.0
2015-Jun-01 14:26N 31°24' E 121°34'0 0.0
2015-Jun-01 13:32N 31°24' E 121°34'0 0.0
2015-Jun-01 12:32N 31°24' E 121°34'0 0.2
2015-Jun-01 11:32N 31°24' E 121°34'0 0.0
2015-Jun-01 10:32N 31°24' E 121°34'0 0.0
2015-Jun-01 09:32N 31°24' E 121°34'0 0.1
2015-Jun-01 08:32N 31°24' E 121°34'0 0.0
2015-Jun-01 07:32N 31°24' E 121°34'0 0.1
2015-Jun-01 06:29N 31°24' E 121°34'0 0.1
2015-Jun-01 05:29N 31°24' E 121°34'0 0.0
2015-Jun-01 02:32N 31°24' E 121°34'0 0.0
2015-Jun-01 01:32N 31°24' E 121°34'0 0.1
2015-Jun-01 00:32N 31°24' E 121°34'0 0.1
2015-May-31 23:32N 31°24' E 121°34'0 0.0
2015-May-31 22:32N 31°24' E 121°34'0 0.0
2015-May-31 21:32N 31°24' E 121°34'0 0.0
2015-May-31 20:32N 31°24' E 121°34'0 0.0
2015-May-31 19:32N 31°24' E 121°34'0 0.0
2015-May-31 18:32N 31°24' E 121°34'0 0.1
2015-May-31 17:29N 31°24' E 121°34'0 0.1
2015-May-31 16:32N 31°24' E 121°34'0 0.0
2015-May-31 15:32N 31°24' E 121°34'0 0.0
2015-May-31 14:32N 31°24' E 121°34'  

Dump ship's entire track history